Time;durP1;ratioP1;P1;durP2;ratioP2;P2;SDS_P1;SDS_P2;PMS_P1;PMS_P2;Temp;Humidity;BMP_temperature;BMP_pressure;BME280_temperature;BME280_humidity;BME280_pressure;Samples;Min_cycle;Max_cycle;Signal;HPM_P1;HPM_P2
2022/09/05 00:06:49;;;;;;;1.10;0.70;;;;;;;;;;20821953;28;20208;-74
2022/09/05 00:17:03;;;;;;;0.67;0.60;;;20.20;99.90;;;;;;20764274;28;20205;-74
2022/09/05 00:27:20;;;;;;;1.10;0.70;;;;;;;;;;20738387;28;20284;-74
2022/09/05 00:47:56;;;;;;;1.60;0.70;;;;;;;;;;20975082;28;21079;-76
2022/09/05 00:58:27;;;;;;;1.27;0.60;;;;;;;;;;20974029;28;20208;-77
2022/09/05 01:08:58;;;;;;;1.20;0.70;;;20.00;99.90;;;;;;20960132;28;20282;-76
2022/09/05 01:19:04;;;;;;;1.90;0.70;;;;;;;;;;20937000;28;20212;-77
2022/09/05 01:29:45;;;;;;;1.33;0.60;;;19.80;99.90;;;;;;20939159;28;20216;-76
2022/09/05 01:39:52;;;;;;;1.40;0.63;;;;;;;;;;20920608;28;20233;-76
2022/09/05 01:50:06;;;;;;;0.77;0.60;;;;;;;;;;20938519;28;20797;-76
2022/09/05 02:00:20;;;;;;;1.50;0.87;;;;;;;;;;20900183;22;20663;-76
2022/09/05 02:10:41;;;;;;;1.20;0.60;;;;;;;;;;20913494;28;20290;-76
2022/09/05 02:20:50;;;;;;;1.20;0.80;;;19.40;99.90;;;;;;20917616;28;20207;-76
2022/09/05 02:30:55;;;;;;;1.73;0.80;;;;;;;;;;20900666;28;20237;-76
2022/09/05 02:41:00;;;;;;;1.10;0.80;;;19.20;99.90;;;;;;20914031;28;20199;-76
2022/09/05 02:51:14;;;;;;;1.10;0.70;;;;;;;;;;20908658;28;20979;-76
2022/09/05 03:01:30;;;;;;;1.37;0.77;;;;;;;;;;20872201;28;20219;-76
2022/09/05 03:11:51;;;;;;;1.17;0.80;;;;;;;;;;20871916;28;20533;-76
2022/09/05 03:22:18;;;;;;;2.43;0.73;;;18.70;99.90;;;;;;20904095;28;20276;-76
2022/09/05 03:32:33;;;;;;;1.10;0.70;;;;;;;;;;20885284;28;20317;-74
2022/09/05 03:42:54;;;;;;;1.20;0.70;;;;;;;;;;20897567;28;20209;-75
2022/09/05 03:53:09;;;;;;;1.80;1.00;;;;;;;;;;20903734;28;20278;-76
2022/09/05 04:03:26;;;;;;;1.03;0.87;;;;;;;;;;20882574;28;20280;-75
2022/09/05 04:13:36;;;;;;;0.90;0.77;;;18.30;99.90;;;;;;20899415;28;20220;-76
2022/09/05 04:23:44;;;;;;;1.33;0.70;;;;;;;;;;20901570;28;20688;-76
2022/09/05 04:33:46;;;;;;;1.37;0.80;;;;;;;;;;20900852;28;20265;-75
2022/09/05 04:43:52;;;;;;;2.17;0.60;;;18.20;99.90;;;;;;20897011;28;20632;-76
2022/09/05 04:54:03;;;;;;;0.90;0.70;;;;;;;;;;20886637;28;20234;-76
2022/09/05 05:04:11;;;;;;;1.17;0.80;;;;;;;;;;20888597;28;20636;-75
2022/09/05 05:14:33;;;;;;;10.10;7.47;;;;;;;;;;20885765;28;20291;-76
2022/09/05 05:24:45;;;;;;;3.80;1.40;;;18.30;99.90;;;;;;20879230;28;20221;-77
2022/09/05 05:34:50;;;;;;;1.07;0.67;;;;;;;;;;20931238;28;20245;-75
2022/09/05 05:44:57;;;;;;;1.20;0.90;;;18.30;99.90;;;;;;20913134;28;20255;-76
2022/09/05 05:55:17;;;;;;;1.30;0.87;;;;;;;;;;20912730;28;20214;-76
2022/09/05 06:05:40;;;;;;;1.93;1.00;;;18.50;99.90;;;;;;20912035;28;20264;-76
2022/09/05 06:16:00;;;;;;;2.20;1.20;;;;;;;;;;20890903;28;20215;-75
2022/09/05 06:26:50;;;;;;;1.20;0.80;;;18.70;99.90;;;;;;20901324;28;20213;-75
2022/09/05 06:36:56;;;;;;;2.13;1.10;;;;;;;;;;20889917;28;20603;-75
2022/09/05 06:47:05;;;;;;;2.27;1.20;;;19.00;99.90;;;;;;20893146;28;20295;-76
2022/09/05 06:57:29;;;;;;;2.30;1.17;;;19.00;99.90;;;;;;20883601;28;20774;-76
2022/09/05 07:07:36;;;;;;;2.17;1.30;;;;;;;;;;20873883;28;20206;-76
2022/09/05 07:17:43;;;;;;;4.47;1.80;;;;;;;;;;20875481;28;20220;-76
2022/09/05 07:27:50;;;;;;;2.47;1.40;;;;;;;;;;20902151;28;20710;-77
2022/09/05 07:37:59;;;;;;;2.17;1.50;;;;;;;;;;20867706;28;20223;-76
2022/09/05 07:48:06;;;;;;;2.87;1.97;;;;;;;;;;20901012;28;20208;-76
2022/09/05 07:58:13;;;;;;;4.43;1.60;;;20.70;99.90;;;;;;20883395;28;20240;-79
2022/09/05 08:08:23;;;;;;;1.80;1.20;;;20.50;99.90;;;;;;20900929;28;20207;-76
2022/09/05 08:18:35;;;;;;;2.17;1.50;;;;;;;;;;20874765;22;20654;-77
2022/09/05 08:28:54;;;;;;;1.83;1.20;;;;;;;;;;20794970;28;20218;-77
2022/09/05 08:39:00;;;;;;;2.93;1.40;;;;;;;;;;20791145;28;20225;-77
2022/09/05 08:49:20;;;;;;;2.60;1.40;;;;;;;;;;20798432;28;20273;-77
2022/09/05 08:59:25;;;;;;;4.43;1.83;;;;;;;;;;20798509;28;20208;-77
2022/09/05 09:09:27;;;;;;;1.27;0.97;;;;;;;;;;20808027;28;20235;-77
2022/09/05 09:19:57;;;;;;;1.42;0.88;;;22.20;99.90;;;;;;20825337;28;20228;-77
2022/09/05 09:30:02;;;;;;;1.05;0.70;;;;;;;;;;20833070;28;20353;-77
2022/09/05 09:40:27;;;;;;;1.30;0.90;;;22.60;99.90;;;;;;20812060;28;20211;-77
2022/09/05 09:50:48;;;;;;;1.17;0.77;;;;;;;;;;20820219;28;20221;-77
2022/09/05 10:01:14;;;;;;;2.05;0.60;;;23.10;99.90;;;;;;20822953;28;20263;-77
2022/09/05 10:11:26;;;;;;;1.20;0.80;;;;;;;;;;20805340;28;20239;-78
2022/09/05 10:21:27;;;;;;;1.02;0.70;;;;;;;;;;20819255;28;20236;-78
2022/09/05 10:31:42;;;;;;;1.00;0.77;;;;;;;;;;20833061;28;20223;-78
2022/09/05 10:41:51;;;;;;;1.25;0.85;;;;;;;;;;20840557;28;20203;-78
2022/09/05 10:51:56;;;;;;;2.88;0.70;;;;;;;;;;20817720;28;20751;-79
2022/09/05 11:02:16;;;;;;;0.52;0.43;;;24.90;99.90;;;;;;20817767;28;20677;-78
2022/09/05 11:12:21;;;;;;;1.10;0.68;;;;;;;;;;20806259;28;20763;-79
2022/09/05 11:22:24;;;;;;;4.63;0.77;;;;;;;;;;20801274;28;20227;-79
2022/09/05 11:32:44;;;;;;;0.68;0.47;;;;;;;;;;20837363;28;20237;-79
2022/09/05 11:42:56;;;;;;;0.98;0.50;;;;;;;;;;20814593;28;20704;-77
2022/09/05 11:53:19;;;;;;;0.82;0.63;;;;;;;;;;20793749;28;20605;-77
2022/09/05 12:03:36;;;;;;;3.17;0.50;;;;;;;;;;20805496;28;20625;-77
2022/09/05 12:13:59;;;;;;;1.85;0.50;;;26.30;99.90;;;;;;20793751;28;20222;-78
2022/09/05 12:24:31;;;;;;;1.17;0.60;;;26.70;99.90;;;;;;20822784;28;20221;-77
2022/09/05 12:34:49;;;;;;;1.77;0.60;;;;;;;;;;20785017;28;20227;-77
2022/09/05 12:44:57;;;;;;;1.25;0.70;;;;;;;;;;20800932;28;20248;-76
2022/09/05 12:55:32;;;;;;;0.85;0.50;;;;;;;;;;20787446;28;20229;-77
2022/09/05 13:06:03;;;;;;;0.77;0.57;;;;;;;;;;20760912;28;20228;-77
2022/09/05 13:16:08;;;;;;;0.85;0.57;;;26.90;99.90;;;;;;20769212;28;20698;-76
2022/09/05 13:26:18;;;;;;;1.05;0.47;;;27.60;99.90;;;;;;20798147;28;20251;-76
2022/09/05 13:36:25;;;;;;;0.70;0.40;;;;;;;;;;20827130;28;20234;-76
2022/09/05 13:46:44;;;;;;;0.57;0.30;;;27.90;93.40;;;;;;20796003;28;20201;-76
2022/09/05 13:57:05;;;;;;;0.50;0.30;;;;;;;;;;20834644;28;20217;-77
2022/09/05 14:07:33;;;;;;;3.55;0.50;;;28.00;93.90;;;;;;20820285;28;20209;-77
2022/09/05 14:17:54;;;;;;;0.90;0.40;;;28.30;80.90;;;;;;20814201;28;20230;-77
2022/09/05 14:27:59;;;;;;;0.52;0.35;;;28.10;93.80;;;;;;20829879;28;20279;-77
2022/09/05 14:38:24;;;;;;;0.40;0.30;;;28.30;91.50;;;;;;20797772;28;20912;-77
2022/09/05 14:48:35;;;;;;;0.90;0.70;;;;;;;;;;20939726;22;20233;-76
2022/09/05 14:58:37;;;;;;;0.65;0.45;;;;;;;;;;20984781;28;20222;-77
2022/09/05 15:08:39;;;;;;;0.80;0.50;;;;;;;;;;20981180;28;20217;-76
2022/09/05 15:18:46;;;;;;;0.98;0.68;;;;;;;;;;20982491;28;20214;-76
2022/09/05 15:28:50;;;;;;;0.77;0.45;;;;;;;;;;20984986;28;20273;-76
2022/09/05 15:38:51;;;;;;;0.68;0.47;;;;;;;;;;20967581;28;20234;-76
2022/09/05 15:48:56;;;;;;;0.55;0.40;;;28.50;99.80;;;;;;20954591;28;20216;-76
2022/09/05 15:58:59;;;;;;;1.17;0.47;;;;;;;;;;20955903;28;20289;-77
2022/09/05 16:09:06;;;;;;;0.55;0.40;;;;;;;;;;20974963;28;20420;-77
2022/09/05 16:19:11;;;;;;;0.98;0.40;;;;;;;;;;20974411;28;20219;-76
2022/09/05 16:29:19;;;;;;;0.68;0.43;;;;;;;;;;20982177;28;20523;-77
2022/09/05 16:39:23;;;;;;;0.52;0.40;;;;;;;;;;20966883;28;20210;-75
2022/09/05 16:49:29;;;;;;;0.80;0.50;;;27.00;96.80;;;;;;20975185;28;20220;-76
2022/09/05 16:59:32;;;;;;;1.20;0.60;;;;;;;;;;20949341;28;20590;-75
2022/09/05 17:09:41;;;;;;;0.57;0.50;;;;;;;;;;20971546;28;20226;-75
2022/09/05 17:19:47;;;;;;;2.00;0.55;;;;;;;;;;20968905;28;20228;-75
2022/09/05 17:29:51;;;;;;;0.80;0.40;;;;;;;;;;20975575;28;20216;-76
2022/09/05 17:39:54;;;;;;;2.50;0.63;;;;;;;;;;20989689;28;20752;-73
2022/09/05 17:50:15;;;;;;;1.50;0.40;;;;;;;;;;20971166;28;20581;-77
2022/09/05 18:00:35;;;;;;;1.00;0.50;;;;;;;;;;20980452;28;20221;-77
2022/09/05 18:10:56;;;;;;;0.85;0.40;;;;;;;;;;20973048;28;20223;-77
2022/09/05 18:21:09;;;;;;;1.17;0.50;;;26.10;98.00;;;;;;20983079;28;20223;-77
2022/09/05 18:31:29;;;;;;;1.38;0.50;;;;;;;;;;20987097;28;20709;-74
2022/09/05 18:41:32;;;;;;;1.23;0.57;;;;;;;;;;20970467;28;20231;-76
2022/09/05 18:51:41;;;;;;;1.48;0.70;;;25.60;99.90;;;;;;20965730;28;20223;-76
2022/09/05 19:01:53;;;;;;;2.33;0.65;;;;;;;;;;20966500;28;20217;-77
2022/09/05 19:12:07;;;;;;;0.85;0.60;;;25.30;99.90;;;;;;20983003;28;20210;-77
2022/09/05 19:22:11;;;;;;;2.33;0.50;;;25.30;99.90;;;;;;20979724;28;20577;-75
2022/09/05 19:32:13;;;;;;;2.35;0.85;;;;;;;;;;20958053;28;20251;-77
2022/09/05 19:42:17;;;;;;;1.08;0.70;;;;;;;;;;20964898;28;20303;-77
2022/09/05 19:52:19;;;;;;;1.13;0.60;;;;;;;;;;20967785;28;20228;-77
2022/09/05 20:02:28;;;;;;;1.50;0.73;;;24.80;99.90;;;;;;20977711;28;20406;-77
2022/09/05 20:12:32;;;;;;;0.90;0.60;;;;;;;;;;20952978;28;20243;-77
2022/09/05 20:22:35;;;;;;;0.98;0.70;;;;;;;;;;20982000;28;20214;-77
2022/09/05 20:32:43;;;;;;;2.75;0.70;;;;;;;;;;20959450;28;20220;-75
2022/09/05 20:42:45;;;;;;;1.52;1.00;;;;;;;;;;20974370;22;20229;-71
2022/09/05 20:52:51;;;;;;;1.88;0.85;;;;;;;;;;20763238;28;20287;-71
2022/09/05 21:02:55;;;;;;;1.20;0.82;;;;;;;;;;20777365;28;20206;-71
2022/09/05 21:12:57;;;;;;;1.77;0.77;;;24.10;99.90;;;;;;20797069;28;20277;-71
2022/09/05 21:23:00;;;;;;;1.15;0.80;;;;;;;;;;20788108;28;20215;-71
2022/09/05 21:33:12;;;;;;;1.77;0.98;;;;;;;;;;20784228;28;20246;-71
2022/09/05 21:43:14;;;;;;;1.38;0.80;;;;;;;;;;20801002;28;20229;-70
2022/09/05 21:53:16;;;;;;;1.17;0.80;;;;;;;;;;20780388;28;20245;-71
2022/09/05 22:03:20;;;;;;;1.80;0.95;;;23.30;99.90;;;;;;20815028;28;20220;-71
2022/09/05 22:13:23;;;;;;;1.52;0.80;;;;;;;;;;20781541;28;20225;-71
2022/09/05 22:23:25;;;;;;;1.60;1.00;;;;;;;;;;20797406;28;20692;-71
2022/09/05 22:33:27;;;;;;;1.38;0.93;;;;;;;;;;20774902;28;20225;-71
2022/09/05 22:43:28;;;;;;;1.58;1.02;;;;;;;;;;20796409;28;20227;-71
2022/09/05 22:53:30;;;;;;;1.30;0.90;;;;;;;;;;20795426;28;20285;-71
2022/09/05 23:03:32;;;;;;;3.40;1.02;;;;;;;;;;20786415;28;20686;-71
2022/09/05 23:13:34;;;;;;;2.35;0.95;;;;;;;;;;20793893;28;20219;-71
2022/09/05 23:23:37;;;;;;;1.70;0.90;;;23.00;99.90;;;;;;20776121;28;20225;-71
2022/09/05 23:33:43;;;;;;;1.90;1.08;;;22.90;99.90;;;;;;20775506;28;20228;-71
2022/09/05 23:43:46;;;;;;;1.27;1.05;;;;;;;;;;20805675;28;20791;-71
2022/09/05 23:53:47;;;;;;;1.23;0.88;;;;;;;;;;20773194;28;20220;-70
